Marks Tey, United Kingdom
Current Conditions -  °F | °C
As of 12:05 PM on Friday 24 Oct 2014 (Local Time) from EGUW Reporting Station
Broken Clouds Broken Clouds  
Wind Chill: 15°   Ceiling: 700
Heat Index: 15°   Visibility: 6mi
Dew Point: 13°   Wind: 9mph
Humidity: 88%   Direction: 220°SW
Pressure: 29.94"   Gusts: NA
Location:  51.88°N, 0.76°E
Report Text: EGUW 241105Z 22008KT 9999 BKN007 BKN015 15/13 Q1014 GRN TEMPO SCT016 WHT
Loading
Personal Weather Stations






























Interactive Weather Map
Tropical Storm Tracking
New forecast layout! Learn more

10-Day Weather Forecast

Advertisements
Track Severe Weather on mobile